sensor_id;sensor_type;location;lat;lon;timestamp;pressure;altitude;pressure_sealevel;temperature;humidity
67545;BME280;54380;47.770;11.150;2023-04-25T03:32:04;94185.19;;;8.52;60.84
67545;BME280;54380;47.770;11.150;2023-04-25T03:34:35;94219.94;;;8.54;60.37
67545;BME280;54380;47.770;11.150;2023-04-25T03:37:03;94186.78;;;8.53;60.54
67545;BME280;54380;47.770;11.150;2023-04-25T03:39:34;94171.53;;;8.55;60.96
67545;BME280;54380;47.770;11.150;2023-04-25T03:42:03;94181.56;;;8.58;60.79
67545;BME280;54380;47.770;11.150;2023-04-25T03:44:35;94178.69;;;8.60;60.56
67545;BME280;54380;47.770;11.150;2023-04-25T03:47:03;94170.56;;;8.66;60.42
67545;BME280;54380;47.770;11.150;2023-04-25T03:49:30;94177.94;;;8.69;60.04
67545;BME280;54380;47.770;11.150;2023-04-25T03:52:11;94167.69;;;8.73;59.72
67545;BME280;54380;47.770;11.150;2023-04-25T03:54:39;94156.13;;;8.74;59.17
67545;BME280;54380;47.770;11.150;2023-04-25T03:57:13;94157.41;;;8.71;59.47
67545;BME280;54380;47.770;11.150;2023-04-25T03:59:42;94156.63;;;8.71;58.95
67545;BME280;54380;47.770;11.150;2023-04-25T04:02:13;94155.06;;;8.70;59.51
67545;BME280;54380;47.770;11.150;2023-04-25T04:04:44;94156.59;;;8.66;59.53
67545;BME280;54380;47.770;11.150;2023-04-25T04:07:20;94164.22;;;8.62;60.21
67545;BME280;54380;47.770;11.150;2023-04-25T04:09:51;94162.91;;;8.60;60.34
67545;BME280;54380;47.770;11.150;2023-04-25T04:12:24;94176.84;;;8.60;60.45
67545;BME280;54380;47.770;11.150;2023-04-25T04:14:55;94177.13;;;8.64;60.34
67545;BME280;54380;47.770;11.150;2023-04-25T04:17:25;94192.13;;;8.68;60.53
67545;BME280;54380;47.770;11.150;2023-04-25T04:19:53;94181.09;;;8.71;60.32
67545;BME280;54380;47.770;11.150;2023-04-25T04:22:23;94174.53;;;8.74;59.52
67545;BME280;54380;47.770;11.150;2023-04-25T04:24:53;94176.88;;;8.70;59.68
67545;BME280;54380;47.770;11.150;2023-04-25T04:27:38;94167.91;;;8.61;60.09
67545;BME280;54380;47.770;11.150;2023-04-25T04:30:33;94177.09;;;8.59;59.69
67545;BME280;54380;47.770;11.150;2023-04-25T04:33:07;94182.09;;;8.60;59.95
67545;BME280;54380;47.770;11.150;2023-04-25T04:35:35;94189.22;;;8.65;59.47
67545;BME280;54380;47.770;11.150;2023-04-25T04:38:03;94186.34;;;8.66;59.29
67545;BME280;54380;47.770;11.150;2023-04-25T04:40:33;94182.13;;;8.65;59.95
67545;BME280;54380;47.770;11.150;2023-04-25T04:43:14;94191.34;;;8.68;60.19
67545;BME280;54380;47.770;11.150;2023-04-25T04:46:09;94192.13;;;8.68;60.19
67545;BME280;54380;47.770;11.150;2023-04-25T04:49:07;94202.97;;;8.72;60.23
67545;BME280;54380;47.770;11.150;2023-04-25T04:51:45;94208.22;;;8.72;60.24
67545;BME280;54380;47.770;11.150;2023-04-25T04:54:51;94218.75;;;8.72;59.97
67545;BME280;54380;47.770;11.150;2023-04-25T04:57:41;94209.00;;;8.72;60.11
67545;BME280;54380;47.770;11.150;2023-04-25T05:00:32;94205.56;;;8.67;60.38
67545;BME280;54380;47.770;11.150;2023-04-25T05:03:31;94199.19;;;8.57;59.93
67545;BME280;54380;47.770;11.150;2023-04-25T05:06:27;94197.06;;;8.54;60.43
67545;BME280;54380;47.770;11.150;2023-04-25T05:09:27;94183.38;;;8.52;59.97
67545;BME280;54380;47.770;11.150;2023-04-25T05:12:03;94186.22;;;8.46;59.98
67545;BME280;54380;47.770;11.150;2023-04-25T05:14:38;94180.66;;;8.42;59.65
67545;BME280;54380;47.770;11.150;2023-04-25T05:17:28;94176.69;;;8.40;58.66
67545;BME280;54380;47.770;11.150;2023-04-25T05:20:08;94174.56;;;8.36;59.93
67545;BME280;54380;47.770;11.150;2023-04-25T05:22:59;94175.34;;;8.37;59.23
67545;BME280;54380;47.770;11.150;2023-04-25T05:25:46;94171.94;;;8.36;58.93
67545;BME280;54380;47.770;11.150;2023-04-25T05:28:33;94168.28;;;8.38;58.16
67545;BME280;54380;47.770;11.150;2023-04-25T05:31:14;94166.44;;;8.38;58.32
67545;BME280;54380;47.770;11.150;2023-04-25T05:33:52;94170.97;;;8.43;58.63
67545;BME280;54380;47.770;11.150;2023-04-25T05:36:21;94184.38;;;8.46;59.27
67545;BME280;54380;47.770;11.150;2023-04-25T05:38:50;94183.13;;;8.54;59.67
67545;BME280;54380;47.770;11.150;2023-04-25T05:41:20;94176.31;;;8.63;59.02
67545;BME280;54380;47.770;11.150;2023-04-25T05:44:10;94179.75;;;8.69;59.14
67545;BME280;54380;47.770;11.150;2023-04-25T05:46:45;94177.72;;;8.76;58.74
67545;BME280;54380;47.770;11.150;2023-04-25T05:49:50;94177.72;;;8.81;58.94
67545;BME280;54380;47.770;11.150;2023-04-25T05:52:39;94177.53;;;8.93;59.08
67545;BME280;54380;47.770;11.150;2023-04-25T05:55:18;94179.94;;;9.05;58.50
67545;BME280;54380;47.770;11.150;2023-04-25T05:57:45;94178.69;;;9.17;57.92
67545;BME280;54380;47.770;11.150;2023-04-25T06:00:14;94178.72;;;9.28;57.28
67545;BME280;54380;47.770;11.150;2023-04-25T06:02:47;94177.97;;;9.37;56.85
67545;BME280;54380;47.770;11.150;2023-04-25T06:05:14;94172.19;;;9.51;57.00
67545;BME280;54380;47.770;11.150;2023-04-25T06:07:42;94170.38;;;9.61;56.71
67545;BME280;54380;47.770;11.150;2023-04-25T06:10:09;94164.81;;;9.63;57.32
67545;BME280;54380;47.770;11.150;2023-04-25T06:12:38;94171.19;;;9.67;57.62
67545;BME280;54380;47.770;11.150;2023-04-25T06:15:06;94173.03;;;9.72;55.76
67545;BME280;54380;47.770;11.150;2023-04-25T06:17:53;94163.53;;;9.71;55.66
67545;BME280;54380;47.770;11.150;2023-04-25T06:20:21;94162.75;;;9.70;55.46
67545;BME280;54380;47.770;11.150;2023-04-25T06:22:52;94163.53;;;9.76;56.00
67545;BME280;54380;47.770;11.150;2023-04-25T06:25:24;94162.47;;;9.87;55.92
67545;BME280;54380;47.770;11.150;2023-04-25T06:27:55;94166.19;;;9.96;56.29
67545;BME280;54380;47.770;11.150;2023-04-25T06:30:23;94165.13;;;10.07;56.33
67545;BME280;54380;47.770;11.150;2023-04-25T06:32:57;94162.75;;;10.21;55.93
67545;BME280;54380;47.770;11.150;2023-04-25T06:35:24;94155.13;;;10.30;54.99
67545;BME280;54380;47.770;11.150;2023-04-25T06:37:52;94154.84;;;10.31;55.81
67545;BME280;54380;47.770;11.150;2023-04-25T06:40:21;94155.63;;;10.47;55.82
67545;BME280;54380;47.770;11.150;2023-04-25T06:42:48;94149.53;;;10.62;55.60
67545;BME280;54380;47.770;11.150;2023-04-25T06:45:35;94155.03;;;10.76;55.58
67545;BME280;54380;47.770;11.150;2023-04-25T06:48:02;94136.25;;;10.93;55.22
67545;BME280;54380;47.770;11.150;2023-04-25T06:50:29;94142.78;;;11.06;55.36
67545;BME280;54380;47.770;11.150;2023-04-25T06:52:56;94139.28;;;11.20;54.76
67545;BME280;54380;47.770;11.150;2023-04-25T06:55:25;94142.69;;;11.26;54.67
67545;BME280;54380;47.770;11.150;2023-04-25T06:58:04;94143.47;;;11.27;54.41
67545;BME280;54380;47.770;11.150;2023-04-25T07:00:52;94140.56;;;11.28;53.82
67545;BME280;54380;47.770;11.150;2023-04-25T07:03:22;94145.63;;;11.25;53.53
67545;BME280;54380;47.770;11.150;2023-04-25T07:05:52;94146.19;;;11.16;52.99
67545;BME280;54380;47.770;11.150;2023-04-25T07:08:19;94143.31;;;11.03;53.58
67545;BME280;54380;47.770;11.150;2023-04-25T07:10:49;94139.38;;;10.95;54.04
67545;BME280;54380;47.770;11.150;2023-04-25T07:13:16;94133.09;;;10.91;53.61
67545;BME280;54380;47.770;11.150;2023-04-25T07:15:43;94142.34;;;10.88;54.16
67545;BME280;54380;47.770;11.150;2023-04-25T07:18:15;94141.81;;;10.86;54.44
67545;BME280;54380;47.770;11.150;2023-04-25T07:20:42;94141.03;;;10.86;54.65
67545;BME280;54380;47.770;11.150;2023-04-25T07:23:10;94151.06;;;10.84;54.28
67545;BME280;54380;47.770;11.150;2023-04-25T07:25:37;94151.34;;;10.82;53.25
67545;BME280;54380;47.770;11.150;2023-04-25T07:28:05;94154.50;;;10.79;53.25
67545;BME280;54380;47.770;11.150;2023-04-25T07:30:32;94151.09;;;10.73;53.56
67545;BME280;54380;47.770;11.150;2023-04-25T07:33:02;94146.31;;;10.75;53.98
67545;BME280;54380;47.770;11.150;2023-04-25T07:35:31;94144.19;;;10.88;54.27
67545;BME280;54380;47.770;11.150;2023-04-25T07:37:58;94140.66;;;11.08;54.09
67545;BME280;54380;47.770;11.150;2023-04-25T07:40:25;94139.50;;;11.29;54.10
67545;BME280;54380;47.770;11.150;2023-04-25T07:42:57;94133.59;;;11.48;53.78
67545;BME280;54380;47.770;11.150;2023-04-25T07:45:42;94120.22;;;11.73;52.21
67545;BME280;54380;47.770;11.150;2023-04-25T07:48:10;94121.22;;;11.82;51.59
67545;BME280;54380;47.770;11.150;2023-04-25T07:50:40;94124.31;;;11.95;51.97
67545;BME280;54380;47.770;11.150;2023-04-25T07:53:06;94122.44;;;11.95;52.27
67545;BME280;54380;47.770;11.150;2023-04-25T07:55:41;94128.59;;;11.85;51.30
67545;BME280;54380;47.770;11.150;2023-04-25T07:58:13;94127.31;;;11.78;51.82
67545;BME280;54380;47.770;11.150;2023-04-25T08:00:44;94119.53;;;11.97;52.30
67545;BME280;54380;47.770;11.150;2023-04-25T08:03:33;94119.88;;;12.19;51.00
67545;BME280;54380;47.770;11.150;2023-04-25T08:06:04;94120.88;;;12.23;50.17
67545;BME280;54380;47.770;11.150;2023-04-25T08:08:41;94123.84;;;12.22;49.97
67545;BME280;54380;47.770;11.150;2023-04-25T08:11:11;94126.22;;;12.18;50.53
67545;BME280;54380;47.770;11.150;2023-04-25T08:13:39;94124.19;;;12.10;50.96
67545;BME280;54380;47.770;11.150;2023-04-25T08:16:06;94121.56;;;12.05;50.63
67545;BME280;54380;47.770;11.150;2023-04-25T08:18:34;94122.41;;;12.00;50.67
67545;BME280;54380;47.770;11.150;2023-04-25T08:21:00;94123.78;;;11.93;50.92
67545;BME280;54380;47.770;11.150;2023-04-25T08:23:29;94122.22;;;11.92;51.22
67545;BME280;54380;47.770;11.150;2023-04-25T08:26:22;94123.75;;;11.98;50.98
67545;BME280;54380;47.770;11.150;2023-04-25T08:28:49;94124.03;;;11.96;51.01
67545;BME280;54380;47.770;11.150;2023-04-25T08:31:17;94135.44;;;11.92;51.13
67545;BME280;54380;47.770;11.150;2023-04-25T08:33:52;94134.94;;;11.84;50.87
67545;BME280;54380;47.770;11.150;2023-04-25T08:36:24;94132.38;;;11.74;51.19
67545;BME280;54380;47.770;11.150;2023-04-25T08:39:17;94133.97;;;11.70;51.42
67545;BME280;54380;47.770;11.150;2023-04-25T08:42:02;94137.97;;;11.68;50.96
67545;BME280;54380;47.770;11.150;2023-04-25T08:44:33;94160.44;;;11.65;51.10
67545;BME280;54380;47.770;11.150;2023-04-25T08:47:01;94163.91;;;11.60;51.05
67545;BME280;54380;47.770;11.150;2023-04-25T08:49:37;94158.94;;;11.54;51.47
67545;BME280;54380;47.770;11.150;2023-04-25T08:52:05;94154.47;;;11.49;51.54
67545;BME280;54380;47.770;11.150;2023-04-25T08:54:35;94152.38;;;11.46;51.64
67545;BME280;54380;47.770;11.150;2023-04-25T08:57:05;94158.19;;;11.48;51.96
67545;BME280;54380;47.770;11.150;2023-04-25T08:59:33;94159.47;;;11.56;52.45
67545;BME280;54380;47.770;11.150;2023-04-25T09:02:05;94154.91;;;11.67;52.59
67545;BME280;54380;47.770;11.150;2023-04-25T09:04:32;94155.81;;;11.91;52.68
67545;BME280;54380;47.770;11.150;2023-04-25T09:06:59;94146.22;;;12.29;52.40
67545;BME280;54380;47.770;11.150;2023-04-25T09:09:26;94150.00;;;12.52;51.91
67545;BME280;54380;47.770;11.150;2023-04-25T09:11:55;94139.53;;;12.66;51.58
67545;BME280;54380;47.770;11.150;2023-04-25T09:14:24;94150.00;;;12.77;51.00
67545;BME280;54380;47.770;11.150;2023-04-25T09:17:15;94153.47;;;12.77;50.45
67545;BME280;54380;47.770;11.150;2023-04-25T09:19:52;94155.03;;;12.78;49.79
67545;BME280;54380;47.770;11.150;2023-04-25T09:22:24;94158.81;;;12.72;49.58
67545;BME280;54380;47.770;11.150;2023-04-25T09:24:51;94165.50;;;12.64;49.50
67545;BME280;54380;47.770;11.150;2023-04-25T09:27:23;94160.00;;;12.56;48.94
67545;BME280;54380;47.770;11.150;2023-04-25T09:29:57;94168.31;;;12.49;49.04
67545;BME280;54380;47.770;11.150;2023-04-25T09:32:25;94161.19;;;12.44;48.89
67545;BME280;54380;47.770;11.150;2023-04-25T09:34:56;94168.06;;;12.45;49.36
67545;BME280;54380;47.770;11.150;2023-04-25T09:37:26;94167.75;;;12.52;49.65
67545;BME280;54380;47.770;11.150;2023-04-25T09:40:19;94170.28;;;12.62;49.64
67545;BME280;54380;47.770;11.150;2023-04-25T09:42:55;94171.06;;;12.63;49.58
67545;BME280;54380;47.770;11.150;2023-04-25T09:45:24;94170.50;;;12.66;49.62
67545;BME280;54380;47.770;11.150;2023-04-25T09:47:50;94170.41;;;12.76;49.54
67545;BME280;54380;47.770;11.150;2023-04-25T09:50:25;94172.97;;;12.86;49.17
67545;BME280;54380;47.770;11.150;2023-04-25T09:53:04;94179.75;;;12.92;48.89
67545;BME280;54380;47.770;11.150;2023-04-25T09:55:56;94174.88;;;13.05;48.38
67545;BME280;54380;47.770;11.150;2023-04-25T09:58:29;94181.75;;;13.06;47.89
67545;BME280;54380;47.770;11.150;2023-04-25T10:01:00;94184.16;;;13.02;47.52
67545;BME280;54380;47.770;11.150;2023-04-25T10:03:38;94180.16;;;13.05;47.50
67545;BME280;54380;47.770;11.150;2023-04-25T10:06:26;94184.19;;;13.26;47.32
67545;BME280;54380;47.770;11.150;2023-04-25T10:08:55;94184.00;;;13.42;47.52
67545;BME280;54380;47.770;11.150;2023-04-25T10:11:22;94187.63;;;13.51;46.92
67545;BME280;54380;47.770;11.150;2023-04-25T10:13:52;94185.44;;;13.53;46.16
67545;BME280;54380;47.770;11.150;2023-04-25T10:16:19;94188.41;;;13.51;46.85
67545;BME280;54380;47.770;11.150;2023-04-25T10:18:49;94206.25;;;13.46;45.67
67545;BME280;54380;47.770;11.150;2023-04-25T10:21:16;94215.72;;;13.28;46.09
67545;BME280;54380;47.770;11.150;2023-04-25T10:23:45;94233.38;;;13.08;46.68
67545;BME280;54380;47.770;11.150;2023-04-25T10:26:13;94238.44;;;12.81;47.35
67545;BME280;54380;47.770;11.150;2023-04-25T11:04:29;94324.25;;;10.59;56.03
67545;BME280;54380;47.770;11.150;2023-04-25T11:07:10;94326.09;;;10.48;56.08
67545;BME280;54380;47.770;11.150;2023-04-25T11:09:40;94325.00;;;10.34;57.14
67545;BME280;54380;47.770;11.150;2023-04-25T11:12:08;94322.09;;;10.30;57.02
67545;BME280;54380;47.770;11.150;2023-04-25T11:14:57;94307.06;;;10.36;57.24
67545;BME280;54380;47.770;11.150;2023-04-25T11:17:38;94304.44;;;10.46;57.65
67545;BME280;54380;47.770;11.150;2023-04-25T11:26:13;94292.81;;;10.98;56.86
67545;BME280;54380;47.770;11.150;2023-04-25T11:28:49;94286.19;;;11.06;56.79
67545;BME280;54380;47.770;11.150;2023-04-25T11:31:18;94290.66;;;11.11;56.76
67545;BME280;54380;47.770;11.150;2023-04-25T11:34:00;94277.44;;;11.21;56.75
67545;BME280;54380;47.770;11.150;2023-04-25T11:36:41;94281.66;;;11.27;56.62
67545;BME280;54380;47.770;11.150;2023-04-25T11:39:23;94273.19;;;11.30;56.19
67545;BME280;54380;47.770;11.150;2023-04-25T11:53:22;94265.50;;;11.39;56.10
67545;BME280;54380;47.770;11.150;2023-04-25T11:56:08;94261.28;;;11.38;56.03
67545;BME280;54380;47.770;11.150;2023-04-25T11:58:56;94258.06;;;11.46;56.74
67545;BME280;54380;47.770;11.150;2023-04-25T12:01:38;94249.03;;;11.57;56.62
67545;BME280;54380;47.770;11.150;2023-04-25T12:04:19;94236.31;;;11.70;56.56
67545;BME280;54380;47.770;11.150;2023-04-25T12:07:00;94242.84;;;11.82;56.32
67545;BME280;54380;47.770;11.150;2023-04-25T12:12:40;94253.88;;;12.00;55.41
67545;BME280;54380;47.770;11.150;2023-04-25T12:15:12;94267.44;;;11.83;55.09
67545;BME280;54380;47.770;11.150;2023-04-25T12:17:45;94267.28;;;11.59;55.34
67545;BME280;54380;47.770;11.150;2023-04-25T12:20:26;94285.84;;;11.38;56.17
67545;BME280;54380;47.770;11.150;2023-04-25T12:22:53;94302.53;;;11.24;56.51
67545;BME280;54380;47.770;11.150;2023-04-25T12:28:13;94310.53;;;10.88;57.28
67545;BME280;54380;47.770;11.150;2023-04-25T12:30:53;94302.59;;;10.88;57.92
67545;BME280;54380;47.770;11.150;2023-04-25T12:33:35;94306.25;;;11.02;58.56
67545;BME280;54380;47.770;11.150;2023-04-25T12:36:04;94293.00;;;11.28;58.12
67545;BME280;54380;47.770;11.150;2023-04-25T12:38:49;94300.34;;;11.46;57.91
67545;BME280;54380;47.770;11.150;2023-04-25T12:41:30;94292.66;;;11.50;57.68
67545;BME280;54380;47.770;11.150;2023-04-25T12:46:59;94304.91;;;11.25;57.20
67545;BME280;54380;47.770;11.150;2023-04-25T12:49:26;94314.72;;;11.09;56.87
67545;BME280;54380;47.770;11.150;2023-04-25T12:51:53;94318.44;;;10.93;57.71
67545;BME280;54380;47.770;11.150;2023-04-25T12:54:20;94316.06;;;10.81;58.28
67545;BME280;54380;47.770;11.150;2023-04-25T12:57:01;94317.91;;;10.86;58.51
67545;BME280;54380;47.770;11.150;2023-04-25T12:59:42;94314.97;;;10.92;58.38
67545;BME280;54380;47.770;11.150;2023-04-25T13:02:12;94319.47;;;10.92;58.59
67545;BME280;54380;47.770;11.150;2023-04-25T13:04:39;94326.59;;;10.86;58.44
67545;BME280;54380;47.770;11.150;2023-04-25T13:07:06;94321.34;;;10.76;58.74
67545;BME280;54380;47.770;11.150;2023-04-25T13:09:33;94331.88;;;10.71;58.12
67545;BME280;54380;47.770;11.150;2023-04-25T13:12:00;94333.22;;;10.68;58.99
67545;BME280;54380;47.770;11.150;2023-04-25T13:14:28;94339.28;;;10.69;58.88
67545;BME280;54380;47.770;11.150;2023-04-25T13:16:55;94342.97;;;10.63;58.88
67545;BME280;54380;47.770;11.150;2023-04-25T13:19:25;94340.88;;;10.60;58.57
67545;BME280;54380;47.770;11.150;2023-04-25T13:21:52;94348.00;;;10.54;58.71
67545;BME280;54380;47.770;11.150;2023-04-25T13:24:33;94345.88;;;10.56;59.25
67545;BME280;54380;47.770;11.150;2023-04-25T13:27:00;94360.13;;;10.60;59.39
67545;BME280;54380;47.770;11.150;2023-04-25T13:29:35;94371.22;;;10.62;59.00
67545;BME280;54380;47.770;11.150;2023-04-25T13:32:04;94366.19;;;10.55;58.97
67545;BME280;54380;47.770;11.150;2023-04-25T13:34:34;94370.41;;;10.51;59.26
67545;BME280;54380;47.770;11.150;2023-04-25T13:37:00;94372.28;;;10.51;59.76
67545;BME280;54380;47.770;11.150;2023-04-25T13:39:27;94368.84;;;10.45;59.57
67545;BME280;54380;47.770;11.150;2023-04-25T13:41:54;94370.66;;;10.45;59.84
67545;BME280;54380;47.770;11.150;2023-04-25T13:44:21;94375.94;;;10.45;60.06
67545;BME280;54380;47.770;11.150;2023-04-25T13:46:48;94383.84;;;10.50;59.21
67545;BME280;54380;47.770;11.150;2023-04-25T13:49:15;94381.22;;;10.45;59.44
67545;BME280;54380;47.770;11.150;2023-04-25T13:51:44;94389.63;;;10.37;59.34
67545;BME280;54380;47.770;11.150;2023-04-25T13:54:11;94387.75;;;10.27;59.83
67545;BME280;54380;47.770;11.150;2023-04-25T13:56:37;94392.00;;;10.28;60.21
67545;BME280;54380;47.770;11.150;2023-04-25T13:59:06;94397.53;;;10.31;59.94
67545;BME280;54380;47.770;11.150;2023-04-25T14:01:33;94394.38;;;10.40;60.15
67545;BME280;54380;47.770;11.150;2023-04-25T14:04:03;94400.75;;;10.54;60.08
67545;BME280;54380;47.770;11.150;2023-04-25T14:06:38;94398.41;;;10.68;59.90
67545;BME280;54380;47.770;11.150;2023-04-25T14:11:55;94397.91;;;11.02;59.47
67545;BME280;54380;47.770;11.150;2023-04-25T14:14:22;94397.38;;;11.15;59.08
67545;BME280;54380;47.770;11.150;2023-04-25T14:16:53;94390.75;;;11.23;58.69
67545;BME280;54380;47.770;11.150;2023-04-25T14:19:20;94397.91;;;11.27;57.91
67545;BME280;54380;47.770;11.150;2023-04-25T14:21:49;94390.75;;;11.28;57.93
67545;BME280;54380;47.770;11.150;2023-04-25T14:24:16;94390.47;;;11.29;57.16
67545;BME280;54380;47.770;11.150;2023-04-25T14:26:43;94380.72;;;11.30;57.32
67545;BME280;54380;47.770;11.150;2023-04-25T14:29:11;94384.94;;;11.41;57.67
67545;BME280;54380;47.770;11.150;2023-04-25T14:31:40;94387.56;;;11.51;57.40
67545;BME280;54380;47.770;11.150;2023-04-25T14:34:07;94391.22;;;11.55;56.79
67545;BME280;54380;47.770;11.150;2023-04-25T14:36:35;94387.53;;;11.61;56.95
67545;BME280;54380;47.770;11.150;2023-04-25T14:39:02;94394.38;;;11.73;56.33
67545;BME280;54380;47.770;11.150;2023-04-25T14:41:30;94394.63;;;11.71;55.97
67545;BME280;54380;47.770;11.150;2023-04-25T14:43:57;94399.66;;;11.68;55.68
67545;BME280;54380;47.770;11.150;2023-04-25T14:46:25;94399.16;;;11.60;55.58
67545;BME280;54380;47.770;11.150;2023-04-25T14:48:52;94392.56;;;11.53;55.87
67545;BME280;54380;47.770;11.150;2023-04-25T14:51:19;94397.06;;;11.47;55.81
67545;BME280;54380;47.770;11.150;2023-04-25T14:53:46;94401.56;;;11.41;55.49
67545;BME280;54380;47.770;11.150;2023-04-25T14:56:13;94392.34;;;11.34;55.90
67545;BME280;54380;47.770;11.150;2023-04-25T14:58:40;94403.69;;;11.29;55.96
67545;BME280;54380;47.770;11.150;2023-04-25T15:01:07;94397.38;;;11.30;56.52
67545;BME280;54380;47.770;11.150;2023-04-25T15:03:36;94403.97;;;11.33;55.98
67545;BME280;54380;47.770;11.150;2023-04-25T15:06:03;94416.13;;;11.24;56.00
67545;BME280;54380;47.770;11.150;2023-04-25T15:08:30;94406.63;;;11.12;56.07
67545;BME280;54380;47.770;11.150;2023-04-25T15:10:57;94424.03;;;11.03;56.55
67545;BME280;54380;47.770;11.150;2023-04-25T15:13:24;94414.81;;;10.95;56.80
67545;BME280;54380;47.770;11.150;2023-04-25T15:15:52;94424.31;;;10.86;56.97
67545;BME280;54380;47.770;11.150;2023-04-25T15:18:20;94433.53;;;10.79;57.36
67545;BME280;54380;47.770;11.150;2023-04-25T15:20:53;94438.78;;;10.73;57.37
67545;BME280;54380;47.770;11.150;2023-04-25T15:23:20;94435.13;;;10.69;57.61
67545;BME280;54380;47.770;11.150;2023-04-25T15:25:49;94445.38;;;10.66;57.65
67545;BME280;54380;47.770;11.150;2023-04-25T15:28:16;94445.66;;;10.59;57.62
67545;BME280;54380;47.770;11.150;2023-04-25T15:30:43;94449.06;;;10.54;58.08
67545;BME280;54380;47.770;11.150;2023-04-25T15:33:09;94453.78;;;10.52;57.73
67545;BME280;54380;47.770;11.150;2023-04-25T15:35:44;94448.78;;;10.46;57.30
67545;BME280;54380;47.770;11.150;2023-04-25T15:38:20;94453.22;;;10.35;57.52
67545;BME280;54380;47.770;11.150;2023-04-25T15:41:01;94468.25;;;10.29;57.85
67545;BME280;54380;47.770;11.150;2023-04-25T15:43:50;94476.34;;;10.23;58.17
67545;BME280;54380;47.770;11.150;2023-04-25T15:46:32;94491.59;;;10.10;58.09
67545;BME280;54380;47.770;11.150;2023-04-25T15:49:12;94491.78;;;9.94;58.28
67545;BME280;54380;47.770;11.150;2023-04-25T15:51:54;94490.63;;;9.79;58.76
67545;BME280;54380;47.770;11.150;2023-04-25T16:27:40;94533.66;;;8.93;61.44
67545;BME280;54380;47.770;11.150;2023-04-25T16:30:07;94520.22;;;8.95;61.53
67545;BME280;54380;47.770;11.150;2023-04-25T16:32:38;94525.88;;;9.04;61.55
67545;BME280;54380;47.770;11.150;2023-04-25T16:35:08;94529.94;;;9.16;61.54
67545;BME280;54380;47.770;11.150;2023-04-25T16:37:49;94529.47;;;9.25;61.69
67545;BME280;54380;47.770;11.150;2023-04-25T16:40:18;94532.91;;;9.25;61.36
67545;BME280;54380;47.770;11.150;2023-04-25T16:43:08;94541.34;;;9.27;61.12
67545;BME280;54380;47.770;11.150;2023-04-25T16:45:34;94532.13;;;9.25;61.72
67545;BME280;54380;47.770;11.150;2023-04-25T16:48:03;94537.63;;;9.23;61.85
67545;BME280;54380;47.770;11.150;2023-04-25T16:50:43;94541.59;;;9.26;61.63
67545;BME280;54380;47.770;11.150;2023-04-25T16:53:12;94544.78;;;9.28;61.94
67545;BME280;54380;47.770;11.150;2023-04-25T16:55:53;94543.53;;;9.35;61.11
67545;BME280;54380;47.770;11.150;2023-04-25T17:07:18;94548.06;;;9.45;61.09
67545;BME280;54380;47.770;11.150;2023-04-25T17:10:04;94546.22;;;9.40;60.74
67545;BME280;54380;47.770;11.150;2023-04-25T17:12:48;94548.81;;;9.35;60.71
67545;BME280;54380;47.770;11.150;2023-04-25T17:15:16;94548.25;;;9.33;60.65
67545;BME280;54380;47.770;11.150;2023-04-25T17:17:57;94548.25;;;9.33;60.96
67545;BME280;54380;47.770;11.150;2023-04-25T17:20:39;94551.94;;;9.32;60.63
67545;BME280;54380;47.770;11.150;2023-04-25T17:29:20;94568.28;;;9.07;61.40
67545;BME280;54380;47.770;11.150;2023-04-25T17:32:02;94566.88;;;8.99;61.72
67545;BME280;54380;47.770;11.150;2023-04-25T17:34:43;94568.97;;;8.97;61.70
67545;BME280;54380;47.770;11.150;2023-04-25T17:37:25;94564.75;;;8.96;61.71
67545;BME280;54380;47.770;11.150;2023-04-25T17:40:08;94567.09;;;8.93;61.51
67545;BME280;54380;47.770;11.150;2023-04-25T17:42:51;94568.66;;;8.94;61.89
67545;BME280;54380;47.770;11.150;2023-04-25T19:43:11;94682.22;;;8.81;62.23
67545;BME280;54380;47.770;11.150;2023-04-25T19:45:51;94686.69;;;8.80;62.29
67545;BME280;54380;47.770;11.150;2023-04-25T19:48:21;94679.28;;;8.77;62.05
67545;BME280;54380;47.770;11.150;2023-04-25T19:50:52;94682.63;;;8.72;62.51
67545;BME280;54380;47.770;11.150;2023-04-25T19:53:33;94686.00;;;8.68;62.59
67545;BME280;54380;47.770;11.150;2023-04-25T19:56:14;94688.53;;;8.63;62.76
67545;BME280;54380;47.770;11.150;2023-04-25T20:04:36;94683.13;;;8.52;63.24
67545;BME280;54380;47.770;11.150;2023-04-25T20:07:17;94683.69;;;8.54;63.04
67545;BME280;54380;47.770;11.150;2023-04-25T20:10:03;94685.84;;;8.57;63.02
67545;BME280;54380;47.770;11.150;2023-04-25T20:12:46;94683.69;;;8.54;63.17
67545;BME280;54380;47.770;11.150;2023-04-25T20:15:29;94687.13;;;8.55;62.90
67545;BME280;54380;47.770;11.150;2023-04-25T20:18:09;94695.00;;;8.55;62.70
67545;BME280;54380;47.770;11.150;2023-04-25T21:07:54;94682.09;;;8.36;63.33
67545;BME280;54380;47.770;11.150;2023-04-25T21:10:36;94698.94;;;8.35;63.13
67545;BME280;54380;47.770;11.150;2023-04-25T21:13:17;94698.59;;;8.32;63.25
67545;BME280;54380;47.770;11.150;2023-04-25T21:15:58;94705.94;;;8.30;63.35
67545;BME280;54380;47.770;11.150;2023-04-25T21:18:38;94706.97;;;8.29;64.01
67545;BME280;54380;47.770;11.150;2023-04-25T21:21:19;94702.97;;;8.26;63.68
67545;BME280;54380;47.770;11.150;2023-04-25T23:50:25;94737.25;;;8.31;62.70
67545;BME280;54380;47.770;11.150;2023-04-25T23:52:53;94737.25;;;8.31;62.84
67545;BME280;54380;47.770;11.150;2023-04-25T23:55:34;94737.50;;;8.30;62.91
67545;BME280;54380;47.770;11.150;2023-04-25T23:58:15;94742.19;;;8.28;62.88
